Latest Weather Observations for Jervois

IDD60801

Issued at 1:31 pm CST Thursday 8 December 2016 (issued every 30 minutes, with the page automatically refreshed every 10 minutes)

About weather observations | Map of weather stations | Latest weather observations for NT | Other Formats
Station Details ID: 015602 Name: JERVOIS Lat: -22.95 Lon: 136.14 Height: 328.0 m
Data from the previous 72 hours. | See also: Recent months at Jervois
Date/Time
CST
Temp
°C
App
Temp
°C
Dew
Point
°C
Rel
Hum
%
Delta-T
°C
Wind Press
QNH
hPa
Press
MSL
hPa
Rain since
9am
mm
Dir  Spd
km/h
Gust
km/h
Spd
kts
Gust
kts
08/01:30pm 26.1 23.4 16.5 55 6.0 S 26 41 14 22 1013.1 - 0.0
08/01:00pm 26.9 24.7 16.9 54 6.3 SSW 24 39 13 21 1012.9 - 0.0
08/12:30pm 27.3 24.5 16.3 51 6.9 S 26 41 14 22 1012.8 - 0.0
08/12:00pm 27.9 25.7 16.8 50 7.0 S 24 41 13 22 1013.1 1010.7 0.0
08/11:30am 27.4 25.7 17.3 54 6.4 S 22 39 12 21 1013.3 - 0.0
08/11:00am 27.0 25.8 18.5 59 5.5 S 22 32 12 17 1013.8 - 0.0
08/10:30am 27.0 26.6 19.0 61 5.2 S 19 28 10 15 1014.1 - 0.0
08/10:00am 25.9 23.8 18.1 62 5.0 SSW 26 39 14 21 1014.1 - 0.0
08/09:30am 26.1 25.8 18.3 62 5.0 SSW 17 26 9 14 1013.7 - 0.0
08/09:00am 26.0 25.2 18.4 63 4.9 SSW 20 30 11 16 1013.7 1011.4 0.0
08/08:30am 26.3 24.8 17.8 59 5.4 SSW 22 32 12 17 1013.7 - 0.0
08/08:00am 27.0 24.8 17.8 57 5.9 SSW 26 43 14 23 1013.5 - 0.0
08/07:42am 27.8 25.1 17.5 53 6.6 SW 28 46 15 25 1013.6 - 0.0
08/07:30am 28.5 26.3 17.9 52 6.8 SW 26 46 14 25 1013.1 - 0.0
08/07:00am 28.6 27.4 17.1 49 7.3 SSW 19 37 10 20 1012.3 - 0.0
08/06:30am 27.8 28.7 16.7 50 7.0 SSW 7 11 4 6 1011.0 - 0.0
08/06:00am 27.5 28.7 16.9 52 6.7 S 6 9 3 5 1010.4 1007.9 0.0
08/05:30am 27.4 28.3 16.6 51 6.8 SSE 7 9 4 5 1009.9 - 0.0
08/05:00am 27.4 28.4 16.8 52 6.7 S 7 11 4 6 1009.7 - 0.0
08/04:30am 27.5 29.0 16.7 51 6.8 SE 4 7 2 4 1009.7 - 0.0
08/04:00am 27.7 29.0 17.2 52 6.7 SSE 6 7 3 4 1009.7 - 0.0
08/03:30am 27.7 28.9 16.8 51 6.9 S 6 9 3 5 1009.7 - 0.0
08/03:00am 27.7 28.1 16.4 50 7.1 SE 9 11 5 6 1009.6 1007.2 0.0
08/02:30am 27.9 28.2 15.9 48 7.5 S 9 11 5 6 1009.7 - 0.0
08/02:00am 28.2 27.6 14.5 43 8.4 SW 11 15 6 8 1009.8 - 0.0
08/01:30am 28.8 28.5 14.4 41 8.8 E 9 13 5 7 1009.5 - 0.0
08/01:00am 28.9 28.7 14.8 42 8.7 ESE 9 13 5 7 1009.9 - 0.0
08/12:30am 28.6 28.5 15.0 43 8.4 ESE 9 11 5 6 1010.4 - 0.0
08/12:00am 28.3 29.0 16.0 47 7.7 SSE 7 9 4 5 1010.9 1008.7 0.0
 
Date/Time
CST
Temp
°C
App
Temp
°C
Dew
Point
°C
Rel
Hum
%
Delta-T
°C
Wind Press
QNH
hPa
Press
MSL
hPa
Rain since
9am
mm
Dir  Spd
km/h
Gust
km/h
Spd
kts
Gust
kts
07/11:30pm 28.7 29.8 15.5 44 8.2 S 4 6 2 3 1011.3 - 0.0
07/11:00pm 29.1 29.7 15.4 43 8.5 S 6 9 3 5 1011.7 - 0.0
07/10:30pm 29.3 29.8 15.5 43 8.6 SE 7 11 4 6 1011.7 - 0.0
07/10:00pm 30.1 29.7 15.1 40 9.3 SE 11 15 6 8 1011.4 - 0.0
07/09:30pm 30.8 30.4 15.3 39 9.7 SE 11 17 6 9 1011.2 - 0.0
07/09:00pm 31.6 30.7 14.9 36 10.4 SE 13 20 7 11 1011.0 1008.7 0.0
07/08:30pm 32.2 31.7 14.9 35 10.8 SE 11 17 6 9 1010.9 - 0.0
07/08:00pm 32.9 31.8 14.2 32 11.6 SE 13 19 7 10 1010.8 - 0.0
07/07:30pm 33.6 32.4 14.1 30 12.1 SSE 13 20 7 11 1010.6 - 0.0
07/07:00pm 34.1 32.1 13.9 29 12.5 SE 17 22 9 12 1010.3 - 0.0
07/06:30pm 34.8 33.3 13.1 27 13.3 ESE 13 19 7 10 1010.3 - 0.0
07/06:00pm 35.0 33.9 13.0 26 13.5 E 11 15 6 8 1010.2 1007.8 0.0
07/05:30pm 35.2 33.5 12.6 25 13.8 E 13 22 7 12 1010.1 - 0.0
07/05:00pm 35.8 34.4 13.3 26 13.9 E 13 19 7 10 1010.1 - 0.0
07/04:30pm 35.8 33.9 13.1 25 14.0 ESE 15 22 8 12 1010.0 - 0.0
07/04:00pm 36.1 33.9 13.3 25 14.1 E 17 24 9 13 1010.2 - 0.0
07/03:30pm 36.0 33.8 13.4 25 14.0 ESE 17 24 9 13 1010.5 - 0.0
07/03:00pm 36.3 33.7 13.1 25 14.3 E 19 28 10 15 1010.9 1008.6 0.0
07/02:30pm 36.4 34.6 13.3 25 14.3 SE 15 24 8 13 1011.1 - 0.0
07/02:00pm 35.3 32.9 13.7 27 13.4 ESE 19 28 10 15 1011.4 - 0.0
07/01:30pm 35.1 32.6 13.6 27 13.3 ESE 19 37 10 20 1011.8 - 0.0
07/01:00pm 34.4 32.9 14.1 29 12.6 E 15 28 8 15 1012.3 - 0.0
07/12:30pm 34.4 32.0 13.9 29 12.7 E 19 32 10 17 1012.8 - 0.0
07/12:00pm 33.3 31.4 14.3 31 11.8 E 17 28 9 15 1013.5 1011.3 0.0
07/11:30am 32.4 30.2 14.5 33 11.1 E 19 35 10 19 1013.9 - 0.0
07/11:00am 32.7 31.2 15.4 35 10.9 SE 17 32 9 17 1014.3 - 0.0
07/10:30am 30.8 28.6 15.0 38 9.8 ESE 20 32 11 17 1014.8 - 0.0
07/10:00am 30.0 27.9 15.2 40 9.2 SE 20 32 11 17 1015.3 - 0.0
07/09:30am 30.3 28.0 15.6 41 9.2 SE 22 35 12 19 1015.7 - 0.0
07/09:00am 29.0 26.8 15.9 45 8.2 ESE 22 35 12 19 1016.2 1013.8 0.0
07/08:30am 28.2 26.7 16.4 48 7.4 SE 19 32 10 17 1016.5 - 0.0
07/08:00am 27.4 26.6 17.9 56 6.1 SSE 19 26 10 14 1016.6 - 0.0
07/07:30am 26.4 25.5 18.3 61 5.2 SSE 20 26 11 14 1016.3 - 0.0
07/07:00am 25.5 25.2 18.3 64 4.6 S 17 24 9 13 1016.3 - 0.0
07/06:30am 24.6 24.6 18.2 67 4.1 S 15 22 8 12 1015.9 - 0.0
07/06:00am 24.3 24.8 17.5 66 4.3 S 11 17 6 9 1015.6 1013.2 0.0
07/05:30am 24.2 25.3 17.2 65 4.4 S 7 11 4 6 1014.5 - 0.0
07/05:00am 24.6 24.5 16.9 62 4.8 SSE 13 17 7 9 1013.9 - 0.0
07/04:30am 24.7 25.0 17.0 62 4.8 SSE 11 19 6 10 1013.8 - 0.0
07/04:00am 24.5 24.5 17.2 63 4.6 SSE 13 19 7 10 1013.3 - 0.0
07/03:30am 24.7 24.6 16.9 62 4.9 SSE 13 20 7 11 1013.0 - 0.0
07/03:00am 24.7 24.3 17.2 63 4.7 SSE 15 24 8 13 1012.9 1010.5 0.0
07/02:30am 24.7 24.6 17.8 65 4.4 SSE 15 20 8 11 1012.9 - 0.0
07/02:00am 24.7 24.6 17.8 65 4.4 SSE 15 20 8 11 1012.9 - 0.0
07/01:30am 24.7 24.6 17.8 65 4.4 SSE 15 20 8 11 1012.9 - 0.0
07/01:00am 24.8 24.6 17.7 64 4.5 SSE 15 20 8 11 1013.3 - 0.0
07/12:30am 25.0 23.8 17.6 63 4.7 SSE 20 32 11 17 1013.4 - 0.0
07/12:00am 24.9 24.6 18.2 66 4.3 S 17 28 9 15 1013.9 1011.6 0.0
 
Date/Time
CST
Temp
°C
App
Temp
°C
Dew
Point
°C
Rel
Hum
%
Delta-T
°C
Wind Press
QNH
hPa
Press
MSL
hPa
Rain since
9am
mm
Dir  Spd
km/h
Gust
km/h
Spd
kts
Gust
kts
06/11:30pm 25.0 24.1 18.3 66 4.3 S 20 33 11 18 1014.2 - 0.0
06/11:00pm 25.5 24.0 18.5 65 4.5 S 24 41 13 22 1014.4 - 0.0
06/10:30pm 27.6 25.1 17.2 53 6.6 S 26 39 14 21 1014.0 - 0.0
06/10:00pm 29.4 26.3 17.6 49 7.6 S 30 54 16 29 1013.8 - 0.0
06/09:38pm 31.7 28.1 16.3 39 9.8 SSE 30 48 16 26 1013.2 - 0.0
06/09:30pm 31.9 28.3 16.3 39 9.9 SSE 30 46 16 25 1013.1 - 0.0
06/09:19pm 32.2 29.0 16.3 38 10.1 SSE 28 46 15 25 1012.7 - 0.0
06/09:00pm 32.5 28.5 16.1 37 10.4 SSE 32 48 17 26 1012.4 1009.9 0.0
06/08:55pm 32.6 29.3 16.1 37 10.5 SSE 28 46 15 25 1012.3 - 0.0
06/08:30pm 33.6 30.1 15.4 33 11.5 SE 28 41 15 22 1011.8 - 0.0
06/08:00pm 34.7 32.2 14.1 29 12.8 SE 20 32 11 17 1011.2 - 0.0
06/07:30pm 35.3 32.6 13.5 27 13.5 SE 20 30 11 16 1010.6 - 0.0
06/07:00pm 35.5 33.9 14.0 27 13.4 SE 15 24 8 13 1010.2 - 0.0
06/06:30pm 35.7 34.5 13.9 27 13.6 SE 13 19 7 10 1009.9 - 0.0
06/06:00pm 36.6 35.6 13.4 25 14.4 SE 11 24 6 13 1009.7 1007.3 0.0
06/05:30pm 36.6 35.6 13.4 25 14.4 E 11 20 6 11 1009.8 - 0.0
06/05:00pm 36.7 35.0 13.5 25 14.4 SE 15 20 8 11 1010.1 - 0.0
06/04:30pm 36.5 35.8 14.2 26 14.0 SE 11 19 6 10 1010.1 - 0.0
06/04:00pm 37.0 35.8 14.0 25 14.4 S 13 24 7 13 1010.3 - 0.0
06/03:30pm 36.9 35.4 14.3 26 14.2 SSE 15 24 8 13 1010.5 - 0.0
06/03:00pm 37.3 35.8 14.3 25 14.5 S 15 26 8 14 1010.8 1008.5 0.0
06/02:30pm 38.9 37.4 14.2 23 15.6 S 15 26 8 14 1010.9 - 0.0
06/02:00pm 37.9 36.9 14.5 25 14.8 SE 13 26 7 14 1011.4 - 0.0
06/01:30pm 38.0 36.7 14.7 25 14.8 S 15 26 8 14 1012.1 - 0.0
06/01:00pm 38.2 37.6 14.5 24 15.0 S 11 26 6 14 1012.4 - 0.0
06/12:30pm 36.5 35.8 15.5 28 13.4 S 13 26 7 14 1012.7 - 0.0
06/12:00pm 35.7 35.7 17.1 33 12.1 SSE 13 26 7 14 1013.4 1011.0 0.0
06/11:30am 35.3 34.8 16.9 33 11.9 S 15 26 8 14 1013.8 - 0.0
06/11:00am 34.0 34.2 17.6 37 10.7 SE 13 19 7 10 1014.3 - 0.0
06/10:30am 32.7 33.4 18.0 41 9.6 SSE 11 20 6 11 1014.9 - 0.0
06/10:00am 31.7 32.3 18.6 45 8.6 SE 13 20 7 11 1015.2 - 0.0
06/09:30am 30.2 30.5 18.7 50 7.5 ESE 15 22 8 12 1015.6 - 0.0
06/09:00am 29.5 29.3 18.6 52 7.1 ESE 17 26 9 14 1015.8 1013.4 0.0
06/08:30am 28.7 28.7 18.9 55 6.4 ESE 17 24 9 13 1015.7 - 0.0
06/08:00am 27.7 27.3 18.8 58 5.8 SE 19 24 10 13 1015.6 - 0.0
06/07:30am 26.9 27.7 19.1 62 5.1 SE 13 20 7 11 1015.2 - 0.0
06/07:00am 25.9 27.1 19.0 65 4.5 SSE 11 17 6 9 1015.1 - 0.0
06/06:30am 24.8 26.0 19.1 70 3.7 S 11 17 6 9 1015.0 - 0.0
06/06:00am 24.0 25.6 19.2 74 3.1 SSW 9 15 5 8 1014.4 1012.2 0.0
06/05:30am 23.8 25.9 19.3 76 2.9 SSW 7 13 4 7 1014.4 - 0.0
06/05:00am 24.2 25.5 19.3 74 3.2 SSW 11 17 6 9 1014.3 - 0.0
06/04:30am 24.6 26.2 19.2 72 3.5 SSW 9 11 5 6 1013.6 - 0.0
06/04:00am 25.0 25.8 19.1 70 3.8 S 13 20 7 11 1013.5 - 0.0
06/03:30am 25.3 25.7 19.1 68 4.0 S 15 20 8 11 1013.4 - 0.0
06/03:00am 25.5 24.9 18.8 66 4.3 S 20 28 11 15 1013.1 1010.7 0.0
06/02:30am 26.0 25.0 18.9 65 4.6 SSW 22 33 12 18 1012.8 - 0.0
06/02:00am 26.5 26.1 19.0 63 4.9 S 19 28 10 15 1012.5 - 0.0
06/01:30am 27.3 25.9 18.7 59 5.6 S 24 35 13 19 1012.4 - 0.0
06/01:00am 29.0 27.5 17.6 50 7.3 S 22 37 12 20 1012.2 - 0.0
06/12:30am 31.1 30.1 13.3 33 10.8 S 11 20 6 11 1011.7 - 0.0
06/12:00am 30.2 30.0 13.6 36 10.1 S 7 11 4 6 1011.6 1009.2 0.0
 
Date/Time
CST
Temp
°C
App
Temp
°C
Dew
Point
°C
Rel
Hum
%
Delta-T
°C
Wind Press
QNH
hPa
Press
MSL
hPa
Rain since
9am
mm
Dir  Spd
km/h
Gust
km/h
Spd
kts
Gust
kts
05/11:30pm 29.7 31.7 16.0 43 8.6 CALM 0 0 0 0 1011.3 - 0.0
05/11:00pm 30.0 31.8 15.6 41 9.0 CALM 0 0 0 0 1011.1 - 0.0
05/10:30pm 30.0 29.8 13.5 36 10.0 WSW 7 7 4 4 1011.0 - 0.0
05/10:00pm 29.0 29.7 13.4 38 9.4 NW 2 6 1 3 1010.6 - 0.0
05/09:30pm 29.3 30.6 14.1 39 9.3 CALM 0 0 0 0 1010.2 - 0.0
05/09:00pm 30.1 31.5 14.3 38 9.7 CALM 0 0 0 0 1009.8 1007.4 0.0
05/08:30pm 31.0 32.3 14.1 35 10.4 CALM 0 0 0 0 1009.6 - 0.0
05/08:00pm 32.5 34.3 15.5 36 10.7 CALM 0 0 0 0 1009.4 - 0.0
05/07:30pm 34.1 34.0 13.2 28 12.8 NW 6 7 3 4 1009.3 - 0.0
05/07:00pm 36.2 34.8 11.0 21 15.1 NNW 9 15 5 8 1009.3 - 0.0
05/06:30pm 37.0 34.7 10.5 20 15.8 N 13 17 7 9 1008.9 - 0.0
05/06:00pm 37.2 34.3 9.8 19 16.2 N 15 20 8 11 1008.6 1006.2 0.0
05/05:30pm 38.4 35.0 9.2 17 17.2 N 17 24 9 13 1008.4 - 0.0
05/05:00pm 39.0 35.0 8.2 15 17.9 NNE 19 33 10 18 1008.4 - 0.0
05/04:30pm 38.3 34.1 7.4 15 17.7 N 19 28 10 15 1008.5 - 0.0
05/04:00pm 39.5 35.7 8.9 16 18.0 NNE 19 33 10 18 1008.6 - 0.0
05/03:30pm 39.4 35.1 7.8 14 18.3 NE 20 32 11 17 1009.0 - 0.0
05/03:00pm 39.4 34.5 6.8 13 18.6 N 22 43 12 23 1009.5 1007.2 0.0
05/02:30pm 38.3 36.0 10.4 18 16.7 NNW 13 24 7 13 1010.1 - 0.0
05/02:00pm 38.5 35.8 12.8 21 15.9 N 19 22 10 12 1010.4 - 0.0

Other Formats:

Comma delimited format used in spreadsheet applications
http://www.bom.gov.au/fwo/IDD60801/IDD60801.94327.axf

JavaScript Object Notation format (JSON) in row-major order
http://www.bom.gov.au/fwo/IDD60801/IDD60801.94327.json